createdAt,value
2019-05-15T00:01:19.451Z,65.35
2019-05-15T00:03:46.382Z,65.48
2019-05-15T00:06:13.417Z,65.13
2019-05-15T00:08:40.396Z,67.76
2019-05-15T00:11:08.275Z,68.39
2019-05-15T00:13:35.452Z,67.72
2019-05-15T00:16:02.654Z,65.55
2019-05-15T00:18:29.452Z,65.73
2019-05-15T00:20:59.438Z,68.25
2019-05-15T00:23:25.732Z,66.31
2019-05-15T00:25:52.595Z,65.96
2019-05-15T00:28:19.407Z,66.34
2019-05-15T00:30:48.114Z,66.63
2019-05-15T00:33:15.155Z,65.02
2019-05-15T00:35:41.905Z,66.62
2019-05-15T00:38:09.335Z,67.85
2019-05-15T00:40:39.177Z,68.69
2019-05-15T00:43:05.295Z,67.65
2019-05-15T00:45:32.070Z,70.45
2019-05-15T00:47:58.969Z,70.41
2019-05-15T00:50:25.828Z,70.09
2019-05-15T00:52:52.725Z,68.62
2019-05-15T00:55:19.402Z,69.31
2019-05-15T00:57:48.539Z,69.80
2019-05-15T01:00:22.130Z,71.33
2019-05-15T01:02:49.030Z,72.37
2019-05-15T01:05:16.097Z,72.99
2019-05-15T01:07:42.967Z,72.36
2019-05-15T01:10:10.080Z,72.20
2019-05-15T01:12:38.036Z,71.05
2019-05-15T01:15:05.310Z,70.91
2019-05-15T01:17:32.454Z,73.87
2019-05-15T01:19:59.862Z,71.04
2019-05-15T01:22:28.618Z,73.13
2019-05-15T01:24:55.744Z,73.72
2019-05-15T01:27:22.549Z,74.17
2019-05-15T01:29:49.542Z,74.77
2019-05-15T01:32:18.942Z,75.35
2019-05-15T01:34:46.078Z,76.56
2019-05-15T01:37:13.092Z,78.35
2019-05-15T01:39:39.891Z,76.08
2019-05-15T01:42:08.361Z,76.13
2019-05-15T01:44:35.358Z,76.51
2019-05-15T01:47:02.128Z,78.64
2019-05-15T01:49:28.918Z,78.64
2019-05-15T01:51:55.705Z,76.17
2019-05-15T01:54:22.412Z,74.71
2019-05-15T01:56:49.701Z,74.38
2019-05-15T01:59:18.781Z,76.64
2019-05-15T02:01:48.322Z,78.58
2019-05-15T02:04:14.543Z,78.45
2019-05-15T02:06:41.438Z,78.13
2019-05-15T02:09:08.535Z,76.72
2019-05-15T02:11:35.539Z,78.50
2019-05-15T02:14:05.079Z,77.19
2019-05-15T02:16:31.886Z,79.83
2019-05-15T02:18:58.663Z,80.66
2019-05-15T02:21:25.470Z,81.94
2019-05-15T02:23:52.239Z,80.65
2019-05-15T02:26:19.149Z,80.64
2019-05-15T02:28:46.022Z,76.96
2019-05-15T02:31:12.944Z,77.92
2019-05-15T02:33:40.425Z,81.46
2019-05-15T02:36:09.731Z,80.93
2019-05-15T02:38:40.427Z,79.09
2019-05-15T02:41:05.125Z,81.84
2019-05-15T02:43:32.041Z,82.17
2019-05-15T02:46:00.384Z,81.05
2019-05-15T02:48:28.990Z,80.45
2019-05-15T02:50:58.934Z,82.63
2019-05-15T02:53:26.113Z,82.32
2019-05-15T02:55:52.880Z,81.74
2019-05-15T02:58:21.224Z,81.63
2019-05-15T03:00:53.123Z,82.49
2019-05-15T03:03:20.134Z,82.49
2019-05-15T03:05:45.987Z,82.31
2019-05-15T03:08:14.794Z,82.39
2019-05-15T03:10:41.708Z,82.62
2019-05-15T03:13:09.671Z,80.05
2019-05-15T03:15:40.216Z,81.76
2019-05-15T03:18:09.187Z,81.23
2019-05-15T03:20:34.585Z,82.16
2019-05-15T03:23:01.346Z,81.43
2019-05-15T03:25:29.765Z,82.32
2019-05-15T03:27:59.589Z,82.50
2019-05-15T03:30:25.489Z,81.98
2019-05-15T03:33:00.780Z,81.34
2019-05-15T03:35:22.547Z,81.92
2019-05-15T03:37:49.963Z,81.90
2019-05-15T03:40:19.388Z,82.04
2019-05-15T03:42:45.524Z,82.96
2019-05-15T03:45:12.459Z,81.57
2019-05-15T03:47:40.059Z,82.06
2019-05-15T03:50:09.042Z,79.37
2019-05-15T03:52:39.080Z,80.04
2019-05-15T03:55:04.853Z,76.58
2019-05-15T03:57:31.687Z,76.18
2019-05-15T03:59:59.796Z,75.71
2019-05-15T04:02:28.782Z,74.42
2019-05-15T04:05:00.502Z,73.71
2019-05-15T04:07:25.056Z,72.78
2019-05-15T04:09:52.034Z,72.75
2019-05-15T04:12:19.725Z,72.84
2019-05-15T04:14:50.210Z,71.83
2019-05-15T04:17:19.811Z,70.99
2019-05-15T04:19:46.090Z,71.00
2019-05-15T04:22:12.943Z,71.64
2019-05-15T04:24:39.982Z,71.06
2019-05-15T04:27:10.489Z,70.79
2019-05-15T04:29:35.662Z,70.40
2019-05-15T04:32:06.024Z,70.04
2019-05-15T04:34:31.259Z,69.59
2019-05-15T04:36:58.691Z,69.37
2019-05-15T04:39:29.408Z,70.43
2019-05-15T04:41:55.144Z,69.33
2019-05-15T04:44:22.047Z,70.39
2019-05-15T04:46:49.857Z,69.05
2019-05-15T04:49:19.324Z,68.33
2019-05-15T04:51:45.733Z,67.63
2019-05-15T04:54:12.525Z,66.27
2019-05-15T04:56:40.125Z,67.35
2019-05-15T04:59:19.562Z,65.99
2019-05-15T05:01:46.487Z,66.19
2019-05-15T05:04:13.592Z,64.94
2019-05-15T05:06:40.440Z,65.33
2019-05-15T05:09:09.191Z,65.67
2019-05-15T05:11:38.338Z,64.57
2019-05-15T05:14:05.114Z,64.17
2019-05-15T05:16:31.887Z,65.83
2019-05-15T05:18:59.422Z,62.12
2019-05-15T05:21:27.834Z,61.05
2019-05-15T05:23:54.763Z,62.21
2019-05-15T05:26:21.529Z,61.97
2019-05-15T05:28:49.095Z,59.95
2019-05-15T05:31:18.848Z,60.59
2019-05-15T05:33:45.099Z,59.63
2019-05-15T05:36:11.850Z,60.09
2019-05-15T05:38:39.029Z,59.09
2019-05-15T05:41:08.170Z,59.43
2019-05-15T05:43:38.387Z,59.88
2019-05-15T05:46:05.101Z,59.50
2019-05-15T05:48:31.988Z,57.86
2019-05-15T05:50:58.862Z,57.06
2019-05-15T05:53:28.520Z,57.80
2019-05-15T05:55:54.975Z,56.81
2019-05-15T05:58:21.777Z,56.57
2019-05-15T06:00:49.545Z,56.18
2019-05-15T06:03:19.552Z,55.99
2019-05-15T06:05:45.443Z,54.20
2019-05-15T06:08:12.357Z,55.51
2019-05-15T06:10:39.296Z,53.55
2019-05-15T06:13:08.607Z,53.74
2019-05-15T06:15:35.036Z,52.13
2019-05-15T06:18:01.886Z,52.17
2019-05-15T06:20:28.801Z,50.31
2019-05-15T06:22:57.906Z,49.80
2019-05-15T06:25:24.255Z,50.98
2019-05-15T06:27:51.138Z,50.54
2019-05-15T06:30:26.532Z,51.54
2019-05-15T06:33:04.996Z,50.29
2019-05-15T06:35:19.447Z,48.45
2019-05-15T06:37:48.431Z,48.11
2019-05-15T06:40:15.192Z,48.03
2019-05-15T06:42:42.094Z,49.39
2019-05-15T06:45:15.169Z,48.50
2019-05-15T06:47:42.466Z,47.59
2019-05-15T06:50:09.878Z,47.85
2019-05-15T06:52:38.094Z,49.01
2019-05-15T06:55:05.780Z,47.96
2019-05-15T06:57:32.687Z,47.90
2019-05-15T06:59:59.551Z,47.17
2019-05-15T07:02:28.554Z,48.15
2019-05-15T07:04:55.098Z,47.77
2019-05-15T07:07:22.069Z,46.01
2019-05-15T07:09:48.878Z,46.23
2019-05-15T07:12:15.789Z,42.35
2019-05-15T07:14:42.611Z,42.64
2019-05-15T07:17:11.977Z,42.49
2019-05-15T07:19:40.219Z,41.53
2019-05-15T07:22:09.264Z,41.61
2019-05-15T07:24:38.209Z,39.37
2019-05-15T07:27:04.635Z,38.48
2019-05-15T07:29:31.398Z,39.11
2019-05-15T07:31:58.733Z,39.12
2019-05-15T07:34:25.490Z,40.43
2019-05-15T07:36:52.395Z,38.15
2019-05-15T07:39:19.245Z,39.15
2019-05-15T07:41:48.216Z,37.46
2019-05-15T07:44:15.344Z,40.42
2019-05-15T07:46:42.234Z,39.46
2019-05-15T07:49:09.278Z,39.58
2019-05-15T07:51:38.132Z,37.98
2019-05-15T07:54:05.468Z,35.49
2019-05-15T07:56:32.518Z,36.91
2019-05-15T07:58:59.670Z,36.49
2019-05-15T08:01:28.881Z,38.32
2019-05-15T08:04:09.306Z,36.39
2019-05-15T08:06:24.843Z,36.83
2019-05-15T08:08:51.994Z,38.10
2019-05-15T08:11:24.108Z,34.79
2019-05-15T08:13:48.718Z,35.78
2019-05-15T08:16:17.973Z,37.25
2019-05-15T08:18:44.714Z,37.34
2019-05-15T08:21:11.575Z,36.32
2019-05-15T08:23:39.114Z,37.93
2019-05-15T08:26:08.578Z,36.64
2019-05-15T08:28:38.063Z,34.77
2019-05-15T08:31:06.702Z,34.14
2019-05-15T08:33:32.859Z,35.88
2019-05-15T08:35:59.715Z,36.22
2019-05-15T08:38:28.818Z,36.52
2019-05-15T08:40:55.205Z,34.76
2019-05-15T08:43:22.123Z,35.53
2019-05-15T08:45:49.898Z,34.49
2019-05-15T08:48:18.489Z,38.24
2019-05-15T08:50:48.380Z,38.59
2019-05-15T08:53:14.489Z,32.38
2019-05-15T08:55:41.621Z,31.33
2019-05-15T08:58:13.676Z,32.56
2019-05-15T09:00:40.141Z,31.72
2019-05-15T09:03:08.565Z,31.50
2019-05-15T09:05:35.254Z,30.31
2019-05-15T09:08:02.053Z,30.58
2019-05-15T09:10:29.139Z,32.83
2019-05-15T09:12:58.513Z,30.49
2019-05-15T09:15:24.954Z,31.28
2019-05-15T09:18:07.712Z,32.60
2019-05-15T09:20:20.424Z,33.63
2019-05-15T09:22:48.966Z,32.10
2019-05-15T09:25:19.097Z,31.36
2019-05-15T09:27:45.228Z,30.03
2019-05-15T09:30:12.276Z,32.28
2019-05-15T09:32:39.540Z,31.41
2019-05-15T09:35:08.353Z,30.51
2019-05-15T09:37:38.294Z,30.83
2019-05-15T09:40:04.594Z,28.39
2019-05-15T09:42:31.485Z,33.06
2019-05-15T09:44:58.698Z,29.66
2019-05-15T09:47:29.490Z,33.06
2019-05-15T09:49:55.752Z,33.54
2019-05-15T09:52:23.229Z,32.38
2019-05-15T09:54:50.220Z,31.81
2019-05-15T09:57:18.774Z,31.28
2019-05-15T09:59:48.590Z,35.10
2019-05-15T10:02:14.616Z,33.28
2019-05-15T10:04:41.434Z,33.92
2019-05-15T10:07:08.369Z,34.04
2019-05-15T10:09:35.456Z,34.13
2019-05-15T10:12:02.304Z,31.56
2019-05-15T10:14:29.774Z,30.87
2019-05-15T10:16:58.408Z,31.60
2019-05-15T10:19:25.387Z,32.38
2019-05-15T10:21:53.209Z,31.13
2019-05-15T10:24:20.477Z,31.90
2019-05-15T10:26:49.095Z,32.54
2019-05-15T10:29:16.040Z,35.27
2019-05-15T10:31:42.919Z,30.49
2019-05-15T10:34:09.709Z,30.71
2019-05-15T10:36:41.373Z,32.43
2019-05-15T10:39:08.606Z,33.27
2019-05-15T10:41:35.544Z,31.32
2019-05-15T10:44:02.576Z,31.96
2019-05-15T10:46:29.473Z,33.99
2019-05-15T10:48:58.575Z,34.20
2019-05-15T10:51:25.131Z,34.82
2019-05-15T10:53:55.109Z,34.95
2019-05-15T10:56:22.318Z,32.68
2019-05-15T10:58:50.533Z,33.61
2019-05-15T11:01:19.223Z,30.93
2019-05-15T11:03:49.239Z,31.62
2019-05-15T11:06:15.041Z,32.21
2019-05-15T11:08:41.808Z,32.62
2019-05-15T11:11:09.298Z,34.95
2019-05-15T11:13:38.138Z,33.68
2019-05-15T11:16:05.214Z,34.68
2019-05-15T11:18:32.791Z,35.44
2019-05-15T11:21:00.188Z,34.05
2019-05-15T11:23:29.159Z,33.92
2019-05-15T11:25:57.989Z,32.55
2019-05-15T11:28:24.472Z,34.67
2019-05-15T11:30:52.126Z,37.09
2019-05-15T11:33:19.365Z,37.25
2019-05-15T11:35:57.875Z,33.92
2019-05-15T11:38:19.243Z,32.35
2019-05-15T11:40:45.717Z,32.43
2019-05-15T11:43:12.988Z,33.57
2019-05-15T11:45:39.881Z,32.10
2019-05-15T11:48:09.020Z,34.12
2019-05-15T11:50:39.715Z,33.91
2019-05-15T11:53:05.174Z,34.43
2019-05-15T11:55:32.371Z,33.55
2019-05-15T11:57:59.513Z,37.83
2019-05-15T12:00:29.533Z,34.72
2019-05-15T12:02:55.100Z,33.29
2019-05-15T12:05:22.124Z,34.35
2019-05-15T12:07:48.982Z,33.95
2019-05-15T12:10:18.441Z,36.78
2019-05-15T12:12:45.064Z,34.16
2019-05-15T12:15:12.268Z,33.94
2019-05-15T12:17:39.339Z,32.57
2019-05-15T12:20:07.279Z,33.54
2019-05-15T12:22:35.141Z,34.14
2019-05-15T12:25:02.152Z,33.70
2019-05-15T12:27:29.399Z,34.58
2019-05-15T12:29:59.756Z,35.34
2019-05-15T12:34:54.116Z,33.51
2019-05-15T12:37:21.536Z,33.21
2019-05-15T12:39:49.300Z,32.22
2019-05-15T13:02:05.251Z,32.53
2019-05-15T13:04:32.068Z,32.75
2019-05-15T13:07:12.149Z,32.23
2019-05-15T13:09:27.848Z,33.06
2019-05-15T13:11:54.678Z,34.25
2019-05-15T13:14:21.481Z,34.47
2019-05-15T13:16:48.228Z,31.91
2019-05-15T13:19:15.026Z,33.22
2019-05-15T13:21:41.783Z,33.57
2019-05-15T13:24:08.769Z,33.46
2019-05-15T13:26:38.303Z,34.63
2019-05-15T13:29:04.937Z,37.68
2019-05-15T13:31:32.593Z,38.07
2019-05-15T13:33:59.473Z,35.92
2019-05-15T13:36:28.841Z,39.96
2019-05-15T13:38:55.157Z,37.76
2019-05-15T13:41:22.384Z,38.21
2019-05-15T13:43:49.419Z,42.44
2019-05-15T13:46:20.437Z,41.87
2019-05-15T13:48:45.419Z,42.70
2019-05-15T13:51:12.308Z,44.89
2019-05-15T13:53:40.312Z,42.56
2019-05-15T13:56:07.652Z,41.88
2019-05-15T13:58:34.788Z,43.67
2019-05-15T14:01:01.775Z,45.16
2019-05-15T14:03:28.833Z,46.03
2019-05-15T14:05:58.147Z,45.32
2019-05-15T14:08:24.697Z,44.86
2019-05-15T14:10:51.581Z,45.78
2019-05-15T14:13:18.979Z,44.12
2019-05-15T14:15:45.850Z,43.85
2019-05-15T14:18:14.139Z,44.82
2019-05-15T14:20:51.113Z,45.04
2019-05-15T14:23:18.574Z,44.18
2019-05-15T14:25:48.061Z,44.34
2019-05-15T14:28:14.629Z,45.53
2019-05-15T14:30:41.403Z,45.39
2019-05-15T14:33:08.673Z,44.89
2019-05-15T14:35:37.766Z,46.30
2019-05-15T14:38:06.824Z,44.52
2019-05-15T14:40:33.195Z,46.29
2019-05-15T14:43:00.272Z,45.47
2019-05-15T14:45:28.037Z,46.12
2019-05-15T14:47:55.228Z,46.34
2019-05-15T14:50:21.967Z,46.47
2019-05-15T14:52:49.173Z,45.22
2019-05-15T14:55:16.790Z,46.40
2019-05-15T14:57:43.653Z,45.65
2019-05-15T15:00:10.671Z,45.18
2019-05-15T15:02:39.088Z,48.37
2019-05-15T15:05:08.932Z,47.03
2019-05-15T15:07:37.982Z,46.14
2019-05-15T15:10:04.589Z,45.70
2019-05-15T15:12:31.657Z,46.64
2019-05-15T15:14:58.415Z,45.61
2019-05-15T15:17:28.900Z,44.99
2019-05-15T15:19:59.961Z,45.48
2019-05-15T15:22:24.632Z,44.16
2019-05-15T15:24:51.389Z,43.87
2019-05-15T15:27:19.032Z,43.01
2019-05-15T15:29:48.166Z,42.91
2019-05-15T15:32:14.687Z,43.33
2019-05-15T15:34:41.538Z,43.07
2019-05-15T15:37:08.506Z,42.81
2019-05-15T15:39:35.172Z,44.00
2019-05-15T15:42:01.963Z,44.16
2019-05-15T15:44:29.181Z,44.13
2019-05-15T15:46:55.955Z,44.78
2019-05-15T15:49:23.093Z,45.05
2019-05-15T15:51:49.852Z,45.23
2019-05-15T15:54:18.814Z,45.36
2019-05-15T15:56:48.538Z,46.25
2019-05-15T15:59:14.856Z,45.02
2019-05-15T16:01:41.662Z,45.04
2019-05-15T16:04:08.714Z,45.85
2019-05-15T16:06:38.554Z,45.31
2019-05-15T16:09:08.316Z,45.01
2019-05-15T16:11:38.395Z,45.94
2019-05-15T16:14:08.967Z,45.06
2019-05-15T16:16:38.121Z,46.60
2019-05-15T16:19:05.489Z,47.95
2019-05-15T16:21:32.843Z,45.99
2019-05-15T16:24:12.489Z,45.25
2019-05-15T16:26:29.430Z,46.62
2019-05-15T16:28:57.993Z,44.00
2019-05-15T16:31:25.000Z,45.61
2019-05-15T16:33:51.905Z,45.95
2019-05-15T16:36:19.595Z,45.64
2019-05-15T16:38:48.189Z,45.03
2019-05-15T16:41:15.425Z,46.45
2019-05-15T16:43:42.840Z,46.60
2019-05-15T16:46:09.714Z,45.37
2019-05-15T16:48:38.964Z,46.19
2019-05-15T16:51:05.493Z,45.25
2019-05-15T16:53:32.652Z,44.33
2019-05-15T16:55:59.569Z,45.58
2019-05-15T16:58:29.522Z,44.90
2019-05-15T17:00:58.388Z,44.67
2019-05-15T17:03:25.539Z,45.43
2019-05-15T17:05:53.509Z,45.10
2019-05-15T17:08:22.427Z,45.67
2019-05-15T17:10:49.491Z,46.37
2019-05-15T17:13:16.963Z,45.90
2019-05-15T17:15:45.232Z,47.52
2019-05-15T17:18:12.083Z,47.11
2019-05-15T17:20:39.343Z,47.75
2019-05-15T17:23:08.535Z,47.56
2019-05-15T17:25:38.286Z,48.09
2019-05-15T17:28:06.105Z,49.05
2019-05-15T17:30:33.063Z,48.94
2019-05-15T17:32:59.864Z,49.72
2019-05-15T17:35:27.778Z,50.06
2019-05-15T17:37:54.904Z,50.93
2019-05-15T17:40:22.469Z,50.37
2019-05-15T17:42:50.203Z,51.41
2019-05-15T17:45:19.339Z,51.74
2019-05-15T17:47:48.616Z,51.57
2019-05-15T17:50:15.787Z,52.20
2019-05-15T17:52:43.007Z,51.78
2019-05-15T17:55:10.611Z,52.02
2019-05-15T17:57:38.859Z,53.32
2019-05-15T18:00:09.085Z,53.11
2019-05-15T18:02:37.996Z,55.08
2019-05-15T18:05:04.646Z,55.33
2019-05-15T18:07:33.362Z,56.06
2019-05-15T18:10:00.338Z,56.54
2019-05-15T18:12:29.231Z,58.34
2019-05-15T18:14:58.351Z,59.49
2019-05-15T18:17:25.325Z,60.83
2019-05-15T18:19:52.236Z,60.97
2019-05-15T18:22:18.896Z,61.99
2019-05-15T18:24:48.429Z,62.47
2019-05-15T18:27:14.819Z,63.67
2019-05-15T18:29:41.701Z,64.31
2019-05-15T18:32:08.755Z,64.01
2019-05-15T18:34:39.438Z,64.72
2019-05-15T18:37:05.559Z,64.94
2019-05-15T18:39:32.757Z,65.47
2019-05-15T18:41:59.690Z,65.97
2019-05-15T18:44:28.365Z,66.71
2019-05-15T18:46:55.464Z,67.30
2019-05-15T18:49:22.536Z,67.01
2019-05-15T18:51:49.902Z,67.77
2019-05-15T18:54:18.991Z,67.97
2019-05-15T18:56:45.827Z,67.90
2019-05-15T18:59:12.768Z,68.33
2019-05-15T19:01:40.150Z,67.54
2019-05-15T19:04:08.764Z,67.71
2019-05-15T19:06:38.211Z,66.35
2019-05-15T19:09:08.033Z,66.51
2019-05-15T19:11:35.395Z,66.34
2019-05-15T19:14:03.187Z,66.39
2019-05-15T19:16:31.727Z,66.68
2019-05-15T19:18:59.610Z,66.85
2019-05-15T19:21:27.805Z,65.83
2019-05-15T19:23:54.670Z,67.58
2019-05-15T19:26:28.818Z,67.74
2019-05-15T19:28:55.459Z,68.57
2019-05-15T19:31:27.021Z,67.40
2019-05-15T19:33:51.649Z,67.42
2019-05-15T19:36:18.518Z,67.56
2019-05-15T19:38:47.909Z,67.26
2019-05-15T19:41:15.382Z,66.18
2019-05-15T19:43:42.350Z,67.09
2019-05-15T19:46:09.592Z,68.09
2019-05-15T19:48:38.630Z,67.34
2019-05-15T19:51:08.782Z,67.29
2019-05-15T19:53:35.508Z,67.33
2019-05-15T19:56:02.681Z,66.82
2019-05-15T19:58:30.686Z,67.51
2019-05-15T20:00:58.276Z,67.79
2019-05-15T20:03:25.096Z,66.50
2019-05-15T20:05:52.185Z,66.16
2019-05-15T20:08:19.558Z,66.88
2019-05-15T20:10:47.923Z,66.83
2019-05-15T20:13:15.548Z,65.26
2019-05-15T20:15:43.093Z,65.64
2019-05-15T20:18:11.156Z,66.87
2019-05-15T20:20:38.812Z,66.25
2019-05-15T20:23:08.542Z,65.20
2019-05-15T20:25:35.212Z,65.64
2019-05-15T20:28:02.830Z,65.15
2019-05-15T20:30:29.884Z,64.31
2019-05-15T20:32:58.542Z,65.04
2019-05-15T20:35:28.248Z,64.33
2019-05-15T20:37:54.728Z,65.86
2019-05-15T20:40:22.019Z,64.19
2019-05-15T20:42:48.897Z,65.01
2019-05-15T20:45:18.476Z,65.60
2019-05-15T20:47:45.255Z,64.13
2019-05-15T20:50:12.171Z,64.23
2019-05-15T20:52:39.687Z,63.52
2019-05-15T20:55:07.983Z,63.57
2019-05-15T20:57:37.682Z,63.18
2019-05-15T21:00:04.299Z,63.37
2019-05-15T21:02:31.114Z,62.99
2019-05-15T21:04:58.381Z,62.76
2019-05-15T21:07:35.765Z,63.39
2019-05-15T21:09:55.415Z,63.29
2019-05-15T21:12:26.182Z,63.53
2019-05-15T21:14:51.161Z,62.82
2019-05-15T21:17:19.837Z,62.38
2019-05-15T21:19:48.823Z,62.70
2019-05-15T21:22:17.929Z,62.46
2019-05-15T21:24:44.241Z,62.13
2019-05-15T21:27:11.108Z,62.71
2019-05-15T21:29:38.210Z,62.78
2019-05-15T21:32:08.417Z,62.07
2019-05-15T21:34:40.636Z,62.00
2019-05-15T21:37:05.349Z,63.54
2019-05-15T21:39:32.493Z,62.61
2019-05-15T21:41:59.338Z,62.08
2019-05-15T21:44:26.237Z,62.43
2019-05-15T21:46:52.897Z,61.27
2019-05-15T21:49:19.900Z,60.58
2019-05-15T21:51:47.918Z,61.44
2019-05-15T21:54:14.980Z,61.30
2019-05-15T21:56:41.933Z,61.96
2019-05-15T21:59:08.693Z,60.84
2019-05-15T22:01:35.629Z,61.64
2019-05-15T22:04:02.976Z,60.52
2019-05-15T22:06:29.903Z,61.65
2019-05-15T22:08:58.328Z,60.17
2019-05-15T22:11:29.282Z,61.23
2019-05-15T22:13:54.073Z,60.92
2019-05-15T22:16:21.217Z,60.03
2019-05-15T22:18:48.278Z,60.27
2019-05-15T22:21:15.134Z,60.05
2019-05-15T22:23:42.027Z,59.66
2019-05-15T22:26:08.780Z,60.67
2019-05-15T22:28:35.816Z,60.36
2019-05-15T22:31:03.848Z,60.09
2019-05-15T22:33:30.748Z,60.48
2019-05-15T22:35:59.324Z,60.79
2019-05-15T22:38:28.403Z,60.97
2019-05-15T22:40:54.966Z,60.33
2019-05-15T22:43:21.762Z,61.29
2019-05-15T22:45:48.823Z,61.72
2019-05-15T22:48:18.064Z,61.59
2019-05-15T22:50:44.375Z,61.30
2019-05-15T22:53:11.173Z,61.14
2019-05-15T22:55:37.934Z,60.90
2019-05-15T22:58:05.157Z,61.91
2019-05-15T23:00:31.913Z,62.48
2019-05-15T23:02:58.825Z,63.37
2019-05-15T23:05:29.368Z,65.35
2019-05-15T23:07:55.604Z,67.26
2019-05-15T23:10:22.473Z,68.77
2019-05-15T23:12:49.650Z,70.06
2019-05-15T23:15:18.722Z,72.29
2019-05-15T23:17:45.424Z,74.10
2019-05-15T23:20:12.706Z,75.82
2019-05-15T23:22:39.458Z,79.25
2019-05-15T23:25:06.512Z,80.03
2019-05-15T23:27:33.293Z,81.75
2019-05-15T23:30:00.326Z,83.27
2019-05-15T23:32:28.926Z,86.97
2019-05-15T23:34:58.264Z,86.45
2019-05-15T23:37:24.707Z,85.40
2019-05-15T23:39:51.588Z,86.57
2019-05-15T23:42:18.629Z,87.46
2019-05-15T23:44:46.152Z,87.63
2019-05-15T23:47:12.963Z,85.98
2019-05-15T23:49:39.805Z,87.39
2019-05-15T23:52:08.726Z,87.46
2019-05-15T23:54:35.376Z,87.23
2019-05-15T23:57:02.198Z,87.08
2019-05-15T23:59:28.947Z,87.04
